createdAt,value
2023-01-02T00:03:10.101Z,100.00
2023-01-02T00:08:12.028Z,99.67
2023-01-02T00:13:14.417Z,100.00
2023-01-02T00:18:16.441Z,100.00
2023-01-02T00:23:18.167Z,99.40
2023-01-02T00:28:19.843Z,99.77
2023-01-02T00:33:21.585Z,99.62
2023-01-02T00:38:23.296Z,99.65
2023-01-02T00:43:25.131Z,98.57
2023-01-02T00:48:26.868Z,98.99
2023-01-02T00:53:28.473Z,98.63
2023-01-02T00:58:30.180Z,98.94
2023-01-02T01:03:32.011Z,99.08
2023-01-02T01:08:35.697Z,97.95
2023-01-02T01:13:37.648Z,98.59
2023-01-02T01:18:39.540Z,97.28
2023-01-02T01:23:41.435Z,98.34
2023-01-02T01:28:43.083Z,97.69
2023-01-02T01:33:45.522Z,98.60
2023-01-02T01:38:48.028Z,98.13
2023-01-02T01:43:56.271Z,98.13
2023-01-02T01:49:05.887Z,97.99
2023-01-02T01:54:10.698Z,97.40
2023-01-02T01:59:13.336Z,96.97
2023-01-02T02:04:15.201Z,96.92
2023-01-02T02:09:37.542Z,97.45
2023-01-02T02:14:39.214Z,97.09
2023-01-02T02:20:08.608Z,96.80
2023-01-02T02:25:25.426Z,96.83
2023-01-02T02:30:38.100Z,96.39
2023-01-02T02:35:54.891Z,96.76
2023-01-02T02:41:04.042Z,96.60
2023-01-02T02:46:20.316Z,96.28
2023-01-02T02:51:33.070Z,95.80
2023-01-02T02:56:35.799Z,96.52
2023-01-02T03:01:37.820Z,96.86
2023-01-02T03:07:02.687Z,96.79
2023-01-02T03:12:17.773Z,97.01
2023-01-02T03:17:48.154Z,96.67
2023-01-02T03:22:55.645Z,97.21
2023-01-02T03:28:01.058Z,97.10
2023-01-02T03:33:17.471Z,96.58
2023-01-02T03:38:38.852Z,96.30
2023-01-02T03:43:44.288Z,96.42
2023-01-02T03:49:21.200Z,96.04
2023-01-02T03:54:22.964Z,95.86
2023-01-02T03:59:51.256Z,96.10
2023-01-02T04:05:07.085Z,96.06
2023-01-02T04:10:11.085Z,95.29
2023-01-02T04:15:15.078Z,95.22
2023-01-02T04:20:33.849Z,94.88
2023-01-02T04:25:44.552Z,95.26
2023-01-02T04:30:52.576Z,94.99
2023-01-02T04:35:54.590Z,94.82
2023-01-02T04:40:56.456Z,94.62
2023-01-02T04:45:58.648Z,95.18
2023-01-02T04:51:00.376Z,94.54
2023-01-02T04:56:01.991Z,94.45
2023-01-02T05:01:12.135Z,94.02
2023-01-02T05:06:14.209Z,93.57
2023-01-02T05:11:18.699Z,94.02
2023-01-02T05:16:20.456Z,94.31
2023-01-02T05:21:40.646Z,94.29
2023-01-02T05:26:42.288Z,95.10
2023-01-02T05:31:44.029Z,96.12
2023-01-02T05:36:45.771Z,94.50
2023-01-02T05:41:47.494Z,94.20
2023-01-02T05:46:49.282Z,93.48
2023-01-02T05:51:50.915Z,94.08
2023-01-02T05:56:52.580Z,94.46
2023-01-02T06:01:54.346Z,94.67
2023-01-02T06:06:56.096Z,94.43
2023-01-02T06:11:57.738Z,93.89
2023-01-02T06:16:59.382Z,94.28
2023-01-02T06:22:01.081Z,94.28
2023-01-02T06:27:02.754Z,94.60
2023-01-02T06:32:04.700Z,94.59
2023-01-02T06:37:09.919Z,94.99
2023-01-02T06:42:11.803Z,94.43
2023-01-02T06:47:13.590Z,94.77
2023-01-02T06:52:15.266Z,94.35
2023-01-02T06:57:17.137Z,94.56
2023-01-02T07:02:18.923Z,94.11
2023-01-02T07:07:20.673Z,93.67
2023-01-02T07:12:22.771Z,93.85
2023-01-02T07:17:24.430Z,94.80
2023-01-02T07:22:26.575Z,94.28
2023-01-02T07:27:32.182Z,95.39
2023-01-02T07:32:35.364Z,94.53
2023-01-02T07:37:37.062Z,95.19
2023-01-02T07:42:38.807Z,95.63
2023-01-02T07:47:40.573Z,95.42
2023-01-02T07:52:45.241Z,94.80
2023-01-02T07:57:48.354Z,95.84
2023-01-02T08:02:50.076Z,95.54
2023-01-02T08:07:51.922Z,95.34
2023-01-02T08:12:53.692Z,95.82
2023-01-02T08:17:57.148Z,96.29
2023-01-02T08:22:58.820Z,96.82
2023-01-02T08:28:00.641Z,96.65
2023-01-02T08:33:02.680Z,97.18
2023-01-02T08:38:04.456Z,96.94
2023-01-02T08:43:13.095Z,98.05
2023-01-02T08:48:20.227Z,98.09
2023-01-02T08:53:23.823Z,98.40
2023-01-02T08:58:25.533Z,98.89
2023-01-02T09:03:27.280Z,99.60
2023-01-02T09:08:29.027Z,100.00
2023-01-02T09:13:30.743Z,100.00
2023-01-02T09:18:33.182Z,100.00
2023-01-02T09:23:34.895Z,99.38
2023-01-02T09:28:37.059Z,99.38
2023-01-02T09:33:40.066Z,100.00
2023-01-02T09:38:41.807Z,100.00
2023-01-02T09:43:48.742Z,99.78
2023-01-02T09:48:50.444Z,100.00
2023-01-02T09:53:52.439Z,99.83
2023-01-02T09:59:16.266Z,100.00
2023-01-02T10:04:40.550Z,100.00
2023-01-02T10:09:51.079Z,100.00
2023-01-02T10:14:55.501Z,100.00
2023-01-02T10:20:52.568Z,100.00
2023-01-02T10:26:05.418Z,100.00
2023-01-02T10:31:14.569Z,100.00
2023-01-02T10:36:27.137Z,100.00
2023-01-02T10:41:30.770Z,100.00
2023-01-02T10:46:35.306Z,100.00
2023-01-02T10:51:42.442Z,100.00
2023-01-02T10:56:49.392Z,100.00
2023-01-02T11:01:59.781Z,100.00
2023-01-02T11:07:03.633Z,100.00
2023-01-02T11:12:11.692Z,100.00
2023-01-02T11:17:21.989Z,100.00
2023-01-02T11:22:36.884Z,100.00
2023-01-02T11:27:43.431Z,96.47
2023-01-02T11:32:45.267Z,96.29
2023-01-02T11:37:52.858Z,93.84
2023-01-02T11:43:16.795Z,88.58
2023-01-02T11:48:22.726Z,92.38
2023-01-02T11:53:33.544Z,85.93
2023-01-02T11:58:39.462Z,91.80
2023-01-02T12:03:41.223Z,88.01
2023-01-02T12:09:04.777Z,88.38
2023-01-02T12:14:12.331Z,90.69
2023-01-02T12:19:27.104Z,85.79
2023-01-02T12:24:44.000Z,85.67
2023-01-02T12:29:48.942Z,90.65
2023-01-02T12:35:21.450Z,81.02
2023-01-02T12:40:53.767Z,81.47
2023-01-02T12:46:15.567Z,81.09
2023-01-02T12:51:21.319Z,77.13
2023-01-02T12:56:45.034Z,77.80
2023-01-02T13:01:54.809Z,78.45
2023-01-02T13:07:19.609Z,74.18
2023-01-02T13:12:25.744Z,74.83
2023-01-02T13:17:27.455Z,75.94
2023-01-02T13:22:40.651Z,75.38
2023-01-02T13:27:45.410Z,73.76
2023-01-02T13:32:48.051Z,76.10
2023-01-02T13:37:52.675Z,72.62
2023-01-02T13:42:59.784Z,73.76
2023-01-02T13:48:07.700Z,73.42
2023-01-02T13:53:12.232Z,74.71
2023-01-02T13:58:18.138Z,75.19
2023-01-02T14:03:23.553Z,75.10
2023-01-02T14:08:32.906Z,75.98
2023-01-02T14:13:44.080Z,76.13
2023-01-02T14:18:46.902Z,78.09
2023-01-02T14:24:16.397Z,76.17
2023-01-02T14:29:16.612Z,76.63
2023-01-02T14:34:24.464Z,75.63
2023-01-02T14:39:35.571Z,77.53
2023-01-02T14:44:52.005Z,77.89
2023-01-02T14:49:58.563Z,77.27
2023-01-02T14:55:18.369Z,78.11
2023-01-02T15:00:28.772Z,78.48
2023-01-02T15:05:37.366Z,78.36
2023-01-02T15:11:20.281Z,79.42
2023-01-02T15:16:24.210Z,82.70
2023-01-02T15:21:29.622Z,80.88
2023-01-02T15:26:36.842Z,81.38
2023-01-02T15:31:39.753Z,83.99
2023-01-02T15:36:42.328Z,80.12
2023-01-02T15:41:49.535Z,81.90
2023-01-02T15:46:51.282Z,78.27
2023-01-02T15:51:55.182Z,80.23
2023-01-02T15:57:06.399Z,78.39
2023-01-02T16:02:30.966Z,79.41
2023-01-02T16:07:36.787Z,80.20
2023-01-02T16:12:38.578Z,78.03
2023-01-02T16:17:40.460Z,77.91
2023-01-02T16:22:47.377Z,79.47
2023-01-02T16:27:59.226Z,76.79
2023-01-02T16:33:03.868Z,79.54
2023-01-02T16:38:24.552Z,79.52
2023-01-02T16:43:26.308Z,79.35
2023-01-02T16:48:30.107Z,78.23
2023-01-02T16:53:33.912Z,80.43
2023-01-02T16:58:35.676Z,79.32
2023-01-02T17:03:37.623Z,78.15
2023-01-02T17:08:40.263Z,76.98
2023-01-02T17:13:41.915Z,78.04
2023-01-02T17:18:43.628Z,78.56
2023-01-02T17:23:45.282Z,76.62
2023-01-02T17:28:46.924Z,76.51
2023-01-02T17:33:49.153Z,77.59
2023-01-02T17:38:51.668Z,77.43
2023-01-02T17:44:01.821Z,77.77
2023-01-02T17:49:06.746Z,79.01
2023-01-02T17:54:08.562Z,79.85
2023-01-02T17:59:10.386Z,83.30
2023-01-02T18:04:12.792Z,84.63
2023-01-02T18:09:14.559Z,86.84
2023-01-02T18:14:24.638Z,87.55
2023-01-02T18:19:36.569Z,88.74
2023-01-02T18:24:38.536Z,89.55
2023-01-02T18:29:41.773Z,90.99
2023-01-02T18:34:48.077Z,91.70
2023-01-02T18:39:51.686Z,92.18
2023-01-02T18:44:55.298Z,91.26
2023-01-02T18:50:02.328Z,92.58
2023-01-02T18:55:10.048Z,92.49
2023-01-02T19:00:22.760Z,93.14
2023-01-02T19:05:29.440Z,93.32
2023-01-02T19:10:36.972Z,92.52
2023-01-02T19:15:49.678Z,94.07
2023-01-02T19:21:11.587Z,94.48
2023-01-02T19:26:42.622Z,94.80
2023-01-02T19:31:58.246Z,94.79
2023-01-02T19:37:13.925Z,95.36
2023-01-02T19:42:23.265Z,95.02
2023-01-02T19:47:30.111Z,95.27
2023-01-02T19:52:32.413Z,95.76
2023-01-02T19:57:37.384Z,94.96
2023-01-02T20:02:40.960Z,94.72
2023-01-02T20:07:43.775Z,94.78
2023-01-02T20:12:46.134Z,95.52
2023-01-02T20:17:47.969Z,94.82
2023-01-02T20:22:52.199Z,95.30
2023-01-02T20:27:56.175Z,95.44
2023-01-02T20:32:58.325Z,95.50
2023-01-02T20:38:00.328Z,95.90
2023-01-02T20:43:02.978Z,95.81
2023-01-02T20:48:05.929Z,95.25
2023-01-02T20:53:08.156Z,94.68
2023-01-02T20:58:10.259Z,95.39
2023-01-02T21:03:12.918Z,95.21
2023-01-02T21:08:15.427Z,95.10
2023-01-02T21:13:17.540Z,95.59
2023-01-02T21:18:23.223Z,94.96
2023-01-02T21:23:28.457Z,94.67
2023-01-02T21:28:30.452Z,94.98
2023-01-02T21:33:32.227Z,95.07
2023-01-02T21:38:34.216Z,95.35
2023-01-02T21:43:35.868Z,96.33
2023-01-02T21:48:38.427Z,95.86
2023-01-02T21:53:40.280Z,95.81
2023-01-02T21:58:41.969Z,95.40
2023-01-02T22:03:43.723Z,94.58
2023-01-02T22:08:45.385Z,94.94
2023-01-02T22:13:47.031Z,94.93
2023-01-02T22:18:49.610Z,94.06
2023-01-02T22:23:51.266Z,94.14
2023-01-02T22:28:52.983Z,93.68
2023-01-02T22:33:58.395Z,93.46
2023-01-02T22:44:27.901Z,92.86
2023-01-02T22:49:31.163Z,92.91
2023-01-02T22:54:32.793Z,93.09
2023-01-02T22:59:34.458Z,93.39
2023-01-02T23:04:36.181Z,92.95
2023-01-02T23:09:37.940Z,93.18
2023-01-02T23:14:39.658Z,92.89
2023-01-02T23:19:41.284Z,92.72
2023-01-02T23:24:42.999Z,92.53
2023-01-02T23:29:44.765Z,91.98
2023-01-02T23:34:46.397Z,92.19
2023-01-02T23:39:48.108Z,91.63
2023-01-02T23:44:49.799Z,91.39
2023-01-02T23:49:51.439Z,91.26
2023-01-02T23:54:53.103Z,90.94
2023-01-02T23:59:54.797Z,90.81
